Sperryville, Virginia
Current Conditions -  °F | °C
As of 4:15 PM on Monday 22 Dec 2014 (Local Time) from KLUA Reporting Station
Light Rain Light Rain  
Wind Chill: 34°   Ceiling: 400
Heat Index: 34°   Visibility: 1.2mi
Dew Point: 34°   Wind: 3mph
Humidity: 100%   Direction: 40°NE
Pressure: 30.15"   Gusts: NA
Location:  38.66°N, 78.23°W
Report Text: KLUA 222115Z AUTO 04003KT 1 1/4SM -RA OVC004 01/01 A3015 RMK AO2
Loading
Personal Weather Stations






























Interactive Weather Map New forecast layout! Learn more

10-Day Weather Forecast

Advertisements
Track Severe Weather on mobile